createdAt,value
2018-06-17T00:00:06.778Z,82.90
2018-06-17T00:02:35.011Z,82.90
2018-06-17T00:05:03.810Z,82.90
2018-06-17T00:07:32.055Z,82.90
2018-06-17T00:10:00.967Z,82.80
2018-06-17T00:12:29.248Z,82.80
2018-06-17T00:14:57.562Z,82.80
2018-06-17T00:17:25.810Z,82.80
2018-06-17T00:19:54.526Z,82.80
2018-06-17T00:22:22.754Z,82.70
2018-06-17T00:24:50.961Z,82.70
2018-06-17T00:27:19.951Z,82.70
2018-06-17T00:29:48.299Z,82.60
2018-06-17T00:32:16.938Z,82.60
2018-06-17T00:34:45.231Z,82.60
2018-06-17T00:37:13.458Z,82.60
2018-06-17T00:39:41.791Z,82.60
2018-06-17T00:42:10.082Z,82.50
2018-06-17T00:44:38.305Z,82.50
2018-06-17T00:47:06.607Z,82.50
2018-06-17T00:49:35.562Z,82.50
2018-06-17T00:52:03.788Z,82.50
2018-06-17T00:54:32.007Z,82.40
2018-06-17T00:57:11.754Z,82.40
2018-06-17T00:59:40.061Z,82.30
2018-06-17T01:02:08.309Z,82.30
2018-06-17T01:04:38.326Z,82.30
2018-06-17T01:07:06.652Z,82.30
2018-06-17T01:09:36.510Z,82.30
2018-06-17T01:12:05.373Z,82.30
2018-06-17T01:14:33.614Z,82.30
2018-06-17T01:17:02.078Z,82.20
2018-06-17T01:19:30.395Z,82.20
2018-06-17T01:21:58.626Z,82.20
2018-06-17T01:24:27.020Z,82.20
2018-06-17T01:26:55.242Z,82.10
2018-06-17T01:29:23.534Z,82.10
2018-06-17T01:31:52.885Z,82.10
2018-06-17T01:34:21.114Z,82.00
2018-06-17T01:36:49.335Z,82.00
2018-06-17T01:39:17.622Z,82.10
2018-06-17T01:41:45.853Z,81.90
2018-06-17T01:44:14.176Z,82.00
2018-06-17T01:46:42.443Z,81.90
2018-06-17T01:49:10.911Z,81.90
2018-06-17T01:51:39.138Z,81.90
2018-06-17T01:54:08.058Z,81.80
2018-06-17T01:56:36.275Z,81.90
2018-06-17T01:59:04.500Z,81.90
2018-06-17T02:01:32.786Z,81.90
2018-06-17T02:04:06.643Z,81.70
2018-06-17T02:06:40.270Z,81.70
2018-06-17T02:09:14.612Z,81.70
2018-06-17T02:11:48.418Z,81.70
2018-06-17T02:14:22.182Z,81.70
2018-06-17T02:16:50.471Z,81.70
2018-06-17T02:19:18.688Z,82.40
2018-06-17T02:21:46.901Z,81.70
2018-06-17T02:24:15.942Z,81.70
2018-06-17T02:26:44.331Z,81.60
2018-06-17T02:29:12.627Z,81.60
2018-06-17T02:31:40.878Z,81.50
2018-06-17T02:34:09.103Z,81.60
2018-06-17T02:36:37.347Z,81.50
2018-06-17T02:39:08.270Z,81.60
2018-06-17T02:41:37.089Z,81.50
2018-06-17T02:44:05.335Z,81.50
2018-06-17T02:46:39.657Z,81.50
2018-06-17T02:49:14.111Z,81.40
2018-06-17T02:51:48.095Z,81.50
2018-06-17T02:54:21.634Z,81.40
2018-06-17T02:56:50.050Z,81.50
2018-06-17T02:59:18.385Z,81.40
2018-06-17T03:01:46.730Z,81.40
2018-06-17T03:04:15.524Z,81.40
2018-06-17T03:06:43.742Z,81.30
2018-06-17T03:09:13.506Z,81.30
2018-06-17T03:11:42.090Z,81.30
2018-06-17T03:14:10.318Z,81.30
2018-06-17T03:16:38.883Z,81.30
2018-06-17T03:19:07.834Z,81.30
2018-06-17T03:21:36.051Z,81.20
2018-06-17T03:24:04.360Z,81.30
2018-06-17T03:26:39.022Z,81.20
2018-06-17T03:29:12.573Z,81.20
2018-06-17T03:31:46.533Z,81.20
2018-06-17T03:34:14.749Z,81.20
2018-06-17T03:36:42.981Z,81.20
2018-06-17T03:39:11.262Z,81.10
2018-06-17T03:41:39.490Z,81.20
2018-06-17T03:44:07.721Z,81.10
2018-06-17T03:46:36.907Z,81.00
2018-06-17T03:49:05.595Z,81.10
2018-06-17T03:51:33.811Z,81.10
2018-06-17T03:54:02.253Z,81.10
2018-06-17T03:56:30.538Z,81.00
2018-06-17T03:58:58.838Z,81.00
2018-06-17T04:01:27.201Z,81.00
2018-06-17T04:03:55.457Z,81.00
2018-06-17T04:06:23.682Z,81.00
2018-06-17T04:11:23.027Z,80.90
2018-06-17T04:13:51.261Z,80.90
2018-06-17T04:16:19.706Z,80.90
2018-06-17T04:18:47.934Z,80.90
2018-06-17T04:23:44.173Z,80.90
2018-06-17T04:26:12.463Z,80.90
2018-06-17T04:28:40.693Z,80.80
2018-06-17T04:31:09.278Z,80.80
2018-06-17T04:33:37.500Z,80.80
2018-06-17T04:36:05.739Z,80.80
2018-06-17T04:38:34.014Z,80.80
2018-06-17T04:41:02.231Z,80.80
2018-06-17T04:43:30.443Z,80.80
2018-06-17T04:45:59.022Z,80.80
2018-06-17T04:48:27.235Z,80.80
2018-06-17T04:50:55.454Z,80.80
2018-06-17T04:53:24.470Z,80.80
2018-06-17T04:55:52.774Z,80.80
2018-06-17T04:58:21.010Z,80.70
2018-06-17T05:00:49.411Z,80.70
2018-06-17T05:03:17.718Z,80.70
2018-06-17T05:05:46.114Z,80.70
2018-06-17T05:08:16.378Z,80.70
2018-06-17T05:10:44.622Z,80.70
2018-06-17T05:13:13.158Z,80.80
2018-06-17T05:15:41.835Z,81.00
2018-06-17T05:18:10.068Z,80.90
2018-06-17T05:20:38.374Z,80.90
2018-06-17T05:23:06.982Z,80.80
2018-06-17T05:25:35.303Z,80.80
2018-06-17T05:28:03.606Z,80.70
2018-06-17T05:30:32.831Z,80.70
2018-06-17T05:33:01.051Z,80.80
2018-06-17T05:35:29.437Z,80.80
2018-06-17T05:37:57.858Z,80.80
2018-06-17T05:40:26.196Z,81.00
2018-06-17T05:42:54.424Z,81.20
2018-06-17T05:45:22.734Z,81.40
2018-06-17T05:47:51.026Z,81.50
2018-06-17T05:50:19.369Z,81.70
2018-06-17T05:52:48.039Z,82.00
2018-06-17T05:55:16.336Z,82.20
2018-06-17T05:57:44.657Z,82.30
2018-06-17T06:00:12.958Z,82.50
2018-06-17T06:02:41.243Z,82.50
2018-06-17T06:05:09.478Z,82.60
2018-06-17T06:07:40.363Z,82.80
2018-06-17T06:10:08.609Z,82.80
2018-06-17T06:12:36.963Z,82.80
2018-06-17T06:15:05.362Z,83.40
2018-06-17T06:17:33.637Z,83.30
2018-06-17T06:20:02.104Z,82.90
2018-06-17T06:22:30.362Z,83.00
2018-06-17T06:24:58.596Z,83.10
2018-06-17T06:27:27.191Z,83.30
2018-06-17T06:29:55.417Z,83.30
2018-06-17T06:32:23.676Z,83.40
2018-06-17T06:37:20.016Z,83.80
2018-06-17T06:39:48.170Z,83.90
2018-06-17T06:42:16.660Z,84.10
2018-06-17T06:44:44.899Z,84.20
2018-06-17T06:47:13.130Z,84.00
2018-06-17T06:49:41.784Z,83.90
2018-06-17T06:52:10.013Z,83.90
2018-06-17T06:54:38.326Z,83.90
2018-06-17T06:57:06.597Z,83.90
2018-06-17T06:59:35.033Z,83.90
2018-06-17T07:04:21.225Z,83.90
2018-06-17T07:08:03.111Z,83.80
2018-06-17T07:10:33.021Z,83.70
2018-06-17T07:13:01.355Z,84.00
2018-06-17T07:15:41.453Z,83.90
2018-06-17T07:18:23.595Z,84.10
2018-06-17T07:20:52.182Z,84.20
2018-06-17T07:23:20.547Z,84.20
2018-06-17T07:26:27.505Z,84.00
2018-06-17T07:29:07.300Z,84.10
2018-06-17T07:34:04.191Z,83.90
2018-06-17T07:36:32.636Z,83.90
2018-06-17T07:39:05.890Z,83.90
2018-06-17T07:41:34.209Z,83.90
2018-06-17T07:44:02.480Z,83.90
2018-06-17T07:46:31.342Z,83.90
2018-06-17T07:49:44.785Z,84.00
2018-06-17T07:52:27.602Z,84.10
2018-06-17T07:54:56.040Z,83.90
2018-06-17T07:57:25.628Z,84.00
2018-06-17T07:59:53.931Z,84.30
2018-06-17T08:02:22.235Z,84.20
2018-06-17T08:04:50.658Z,84.20
2018-06-17T08:07:23.133Z,84.20
2018-06-17T08:09:54.032Z,84.20
2018-06-17T08:12:24.044Z,84.10
2018-06-17T08:14:52.270Z,84.10
2018-06-17T08:17:20.518Z,84.10
2018-06-17T08:19:49.298Z,84.10
2018-06-17T08:22:17.534Z,84.80
2018-06-17T08:24:45.766Z,84.20
2018-06-17T08:29:42.751Z,84.60
2018-06-17T08:32:11.047Z,84.70
2018-06-17T08:34:39.435Z,84.50
2018-06-17T08:37:07.685Z,84.60
2018-06-17T08:39:35.964Z,84.60
2018-06-17T08:42:04.702Z,84.60
2018-06-17T08:44:32.931Z,84.80
2018-06-17T08:47:01.194Z,83.20
2018-06-17T08:49:29.733Z,79.10
2018-06-17T08:51:58.010Z,77.50
2018-06-17T08:54:26.389Z,76.40
2018-06-17T08:56:54.670Z,76.30
2018-06-17T08:59:22.900Z,77.50
2018-06-17T09:01:51.374Z,77.90
2018-06-17T09:04:19.730Z,78.10
2018-06-17T09:06:47.955Z,74.70
2018-06-17T09:09:17.582Z,71.70
2018-06-17T09:11:46.002Z,74.40
2018-06-17T09:16:42.451Z,75.00
2018-06-17T09:19:12.015Z,73.70
2018-06-17T09:21:40.325Z,74.70
2018-06-17T09:24:08.737Z,74.30
2018-06-17T09:26:38.386Z,73.80
2018-06-17T09:29:06.690Z,72.60
2018-06-17T09:31:34.956Z,70.60
2018-06-17T09:34:03.244Z,68.00
2018-06-17T09:36:31.528Z,67.10
2018-06-17T09:38:59.846Z,65.40
2018-06-17T09:41:28.070Z,64.30
2018-06-17T09:43:56.413Z,63.80
2018-06-17T09:46:25.335Z,63.40
2018-06-17T09:48:53.659Z,63.10
2018-06-17T09:51:21.914Z,62.70
2018-06-17T09:53:50.226Z,63.50
2018-06-17T09:56:18.480Z,65.30
2018-06-17T09:58:46.724Z,66.20
2018-06-17T10:01:15.036Z,68.10
2018-06-17T10:03:43.334Z,69.40
2018-06-17T10:06:11.565Z,70.80
2018-06-17T10:08:41.047Z,71.40
2018-06-17T10:11:09.405Z,72.60
2018-06-17T10:13:39.991Z,72.60
2018-06-17T10:16:09.354Z,73.00
2018-06-17T10:18:37.594Z,73.60
2018-06-17T10:21:05.914Z,74.40
2018-06-17T10:23:34.487Z,74.70
2018-06-17T10:26:02.795Z,75.30
2018-06-17T10:28:32.031Z,76.20
2018-06-17T10:31:01.670Z,78.00
2018-06-17T10:33:30.027Z,80.00
2018-06-17T10:35:58.312Z,80.20
2018-06-17T10:38:26.810Z,80.00
2018-06-17T10:40:55.065Z,80.20
2018-06-17T10:43:24.737Z,79.10
2018-06-17T10:45:53.183Z,77.40
2018-06-17T10:48:21.560Z,75.10
2018-06-17T10:50:49.813Z,72.60
2018-06-17T10:53:18.215Z,72.70
2018-06-17T10:55:46.476Z,74.20
2018-06-17T10:58:14.764Z,74.80
2018-06-17T11:00:43.106Z,75.50
2018-06-17T11:03:11.425Z,76.40
2018-06-17T11:05:39.785Z,76.20
2018-06-17T11:08:10.439Z,76.00
2018-06-17T11:10:38.682Z,75.80
2018-06-17T11:13:07.153Z,74.80
2018-06-17T11:15:36.082Z,74.30
2018-06-17T11:18:04.334Z,76.10
2018-06-17T11:20:32.670Z,76.90
2018-06-17T11:23:01.190Z,77.90
2018-06-17T11:25:29.421Z,78.30
2018-06-17T11:27:57.682Z,78.90
2018-06-17T11:30:26.977Z,79.50
2018-06-17T11:32:55.242Z,79.90
2018-06-17T11:35:23.492Z,79.30
2018-06-17T11:37:52.220Z,79.70
2018-06-17T11:40:20.444Z,79.80
2018-06-17T11:42:48.673Z,79.70
2018-06-17T11:45:17.355Z,79.60
2018-06-17T11:47:46.997Z,79.10
2018-06-17T11:50:15.390Z,78.20
2018-06-17T11:52:43.658Z,75.90
2018-06-17T11:55:11.907Z,75.50
2018-06-17T11:57:40.586Z,76.70
2018-06-17T12:00:08.824Z,77.40
2018-06-17T12:02:37.157Z,77.10
2018-06-17T12:05:05.722Z,76.80
2018-06-17T12:07:37.615Z,75.40
2018-06-17T12:10:06.163Z,73.80
2018-06-17T12:12:35.832Z,71.90
2018-06-17T12:15:04.191Z,69.30
2018-06-17T12:20:00.706Z,67.10
2018-06-17T12:22:28.972Z,66.90
2018-06-17T12:24:57.239Z,66.60
2018-06-17T12:27:26.454Z,66.40
2018-06-17T12:29:54.702Z,67.10
2018-06-17T12:32:22.938Z,67.50
2018-06-17T12:34:51.195Z,68.10
2018-06-17T12:37:19.494Z,69.40
2018-06-17T12:39:47.795Z,69.40
2018-06-17T12:42:16.083Z,69.60
2018-06-17T12:44:44.354Z,70.00
2018-06-17T12:47:12.622Z,70.00
2018-06-17T12:49:41.356Z,72.50
2018-06-17T12:52:09.615Z,73.20
2018-06-17T12:54:37.838Z,73.10
2018-06-17T12:57:06.395Z,73.80
2018-06-17T12:59:34.610Z,74.20
2018-06-17T13:02:02.848Z,74.60
2018-06-17T13:04:32.265Z,75.10
2018-06-17T13:07:00.580Z,74.80
2018-06-17T13:09:31.071Z,74.90
2018-06-17T13:11:59.339Z,73.90
2018-06-17T13:14:27.650Z,73.40
2018-06-17T13:16:55.975Z,73.40
2018-06-17T13:19:24.212Z,73.80
2018-06-17T13:24:20.963Z,73.80
2018-06-17T13:26:49.223Z,73.90
2018-06-17T13:29:17.560Z,74.10
2018-06-17T13:31:46.674Z,74.30
2018-06-17T13:34:14.990Z,74.40
2018-06-17T13:39:11.594Z,75.00
2018-06-17T13:41:39.858Z,75.10
2018-06-17T13:44:08.126Z,75.10
2018-06-17T13:46:36.539Z,75.80
2018-06-17T13:49:04.798Z,76.00
2018-06-17T13:51:33.114Z,75.80
2018-06-17T13:54:02.407Z,76.10
2018-06-17T13:56:30.634Z,76.00
2018-06-17T13:58:58.898Z,75.70
2018-06-17T14:01:27.818Z,75.70
2018-06-17T14:03:56.169Z,75.70
2018-06-17T14:06:24.397Z,75.90
2018-06-17T14:08:54.424Z,76.00
2018-06-17T14:11:22.691Z,76.00
2018-06-17T14:13:51.310Z,76.10
2018-06-17T14:16:19.758Z,76.20
2018-06-17T14:18:48.084Z,76.30
2018-06-17T14:21:16.320Z,76.30
2018-06-17T14:23:45.017Z,76.50
2018-06-17T14:26:13.415Z,76.40
2018-06-17T14:28:41.743Z,76.60
2018-06-17T14:31:10.697Z,76.60
2018-06-17T14:33:38.950Z,76.60
2018-06-17T14:36:07.174Z,76.70
2018-06-17T14:38:35.783Z,76.70
2018-06-17T14:41:09.415Z,77.50
2018-06-17T14:43:43.402Z,76.90
2018-06-17T14:46:17.056Z,77.10
2018-06-17T14:48:51.739Z,76.60
2018-06-17T14:51:25.280Z,76.70
2018-06-17T14:53:54.015Z,76.00
2018-06-17T14:56:22.238Z,75.70
2018-06-17T14:58:50.488Z,75.70
2018-06-17T15:01:19.251Z,75.40
2018-06-17T15:03:47.533Z,75.20
2018-06-17T15:06:15.706Z,75.30
2018-06-17T15:08:46.763Z,75.50
2018-06-17T15:11:15.380Z,75.00
2018-06-17T15:16:11.719Z,73.50
2018-06-17T15:18:40.112Z,73.70
2018-06-17T15:21:08.554Z,74.80
2018-06-17T15:23:36.921Z,75.40
2018-06-17T15:26:05.329Z,75.60
2018-06-17T15:28:33.550Z,75.90
2018-06-17T15:31:08.610Z,76.30
2018-06-17T15:33:42.144Z,76.70
2018-06-17T15:36:16.230Z,77.20
2018-06-17T15:38:51.039Z,77.80
2018-06-17T15:41:24.876Z,78.00
2018-06-17T15:43:53.860Z,78.30
2018-06-17T15:46:22.106Z,78.30
2018-06-17T15:48:50.720Z,78.50
2018-06-17T15:51:18.967Z,78.60
2018-06-17T15:53:47.433Z,78.80
2018-06-17T15:56:15.860Z,78.90
2018-06-17T15:58:44.101Z,79.00
2018-06-17T16:01:12.324Z,79.60
2018-06-17T16:03:41.679Z,79.90
2018-06-17T16:06:09.922Z,80.00
2018-06-17T16:08:39.809Z,80.70
2018-06-17T16:11:08.147Z,80.80
2018-06-17T16:13:42.298Z,80.20
2018-06-17T16:16:16.102Z,80.30
2018-06-17T16:18:50.267Z,80.50
2018-06-17T16:21:18.604Z,80.60
2018-06-17T16:23:46.955Z,81.10
2018-06-17T16:26:15.556Z,81.20
2018-06-17T16:28:43.787Z,81.30
2018-06-17T16:31:12.090Z,81.20
2018-06-17T16:33:40.605Z,81.10
2018-06-17T16:36:08.952Z,81.10
2018-06-17T16:38:37.183Z,81.20
2018-06-17T16:41:05.765Z,81.30
2018-06-17T16:43:34.018Z,81.50
2018-06-17T16:46:02.290Z,81.50
2018-06-17T16:48:31.386Z,81.70
2018-06-17T16:51:05.007Z,81.70
2018-06-17T16:53:38.786Z,81.70
2018-06-17T16:56:12.464Z,82.10
2018-06-17T16:59:45.571Z,82.60
2018-06-17T17:02:13.808Z,79.50
2018-06-17T17:04:42.067Z,74.30
2018-06-17T17:07:11.568Z,73.80
2018-06-17T17:09:42.067Z,77.10
2018-06-17T17:12:10.314Z,77.10
2018-06-17T17:14:39.857Z,76.90
2018-06-17T17:17:08.104Z,76.90
2018-06-17T17:19:36.362Z,77.10
2018-06-17T17:22:05.201Z,78.20
2018-06-17T17:24:33.558Z,77.80
2018-06-17T17:27:01.792Z,78.10
2018-06-17T17:29:30.301Z,78.20
2018-06-17T17:32:04.038Z,78.20
2018-06-17T17:34:37.548Z,78.30
2018-06-17T17:37:11.224Z,78.60
2018-06-17T17:39:48.135Z,78.70
2018-06-17T17:42:16.382Z,79.00
2018-06-17T17:44:50.922Z,79.00
2018-06-17T17:47:22.542Z,79.00
2018-06-17T17:49:50.899Z,79.00
2018-06-17T17:52:19.253Z,79.10
2018-06-17T17:54:47.704Z,79.20
2018-06-17T17:57:16.422Z,79.10
2018-06-17T17:59:45.401Z,79.10
2018-06-17T18:02:13.840Z,79.10
2018-06-17T18:04:42.124Z,79.40
2018-06-17T18:07:11.155Z,79.50
2018-06-17T18:09:41.578Z,80.00
2018-06-17T18:12:09.843Z,80.50
2018-06-17T18:14:39.668Z,80.50
2018-06-17T18:17:07.931Z,80.70
2018-06-17T18:19:36.255Z,80.50
2018-06-17T18:22:04.996Z,80.40
2018-06-17T18:24:33.234Z,80.50
2018-06-17T18:27:07.403Z,80.40
2018-06-17T18:29:41.104Z,80.50
2018-06-17T18:32:15.126Z,80.60
2018-06-17T18:34:48.811Z,80.50
2018-06-17T18:37:17.093Z,80.50
2018-06-17T18:39:45.348Z,80.50
2018-06-17T18:42:13.670Z,80.50
2018-06-17T18:44:42.442Z,80.50
2018-06-17T18:47:10.694Z,80.50
2018-06-17T18:49:38.968Z,80.40
2018-06-17T18:52:07.578Z,80.40
2018-06-17T18:54:35.858Z,80.30
2018-06-17T18:57:04.101Z,80.30
2018-06-17T18:59:32.921Z,80.10
2018-06-17T19:02:01.189Z,80.00
2018-06-17T19:04:29.745Z,80.00
2018-06-17T19:06:58.775Z,79.90
2018-06-17T19:09:34.232Z,79.80
2018-06-17T19:12:08.340Z,79.80
2018-06-17T19:14:42.011Z,79.70
2018-06-17T19:17:18.914Z,80.30
2018-06-17T19:19:47.312Z,79.50
2018-06-17T19:22:15.827Z,79.40
2018-06-17T19:24:44.208Z,79.40
2018-06-17T19:27:12.454Z,79.30
2018-06-17T19:29:41.454Z,79.20
2018-06-17T19:32:09.764Z,79.10
2018-06-17T19:34:38.145Z,79.10
2018-06-17T19:37:06.581Z,79.00
2018-06-17T19:39:34.809Z,79.00
2018-06-17T19:42:03.077Z,78.90
2018-06-17T19:44:32.535Z,78.90
2018-06-17T19:47:00.846Z,78.80
2018-06-17T19:49:35.256Z,78.80
2018-06-17T19:54:43.450Z,78.70
2018-06-17T19:57:17.100Z,78.60
2018-06-17T19:59:50.995Z,78.60
2018-06-17T20:02:19.339Z,78.70
2018-06-17T20:04:47.623Z,79.40
2018-06-17T20:07:16.791Z,79.40
2018-06-17T20:09:47.849Z,79.40
2018-06-17T20:12:16.154Z,79.10
2018-06-17T20:14:44.491Z,78.80
2018-06-17T20:17:12.746Z,78.50
2018-06-17T20:19:41.008Z,78.40
2018-06-17T20:22:09.563Z,78.30
2018-06-17T20:24:37.869Z,78.10
2018-06-17T20:27:06.101Z,78.00
2018-06-17T20:29:35.127Z,78.00
2018-06-17T20:32:08.707Z,78.00
2018-06-17T20:34:45.751Z,77.90
2018-06-17T20:37:19.342Z,77.90
2018-06-17T20:39:52.461Z,77.80
2018-06-17T20:42:26.177Z,78.40
2018-06-17T20:44:55.371Z,77.60
2018-06-17T20:47:23.746Z,77.50
2018-06-17T20:49:52.023Z,77.50
2018-06-17T20:52:20.351Z,78.10
2018-06-17T20:54:48.587Z,77.40
2018-06-17T20:57:16.908Z,77.30
2018-06-17T20:59:45.359Z,77.80
2018-06-17T21:02:13.595Z,78.00
2018-06-17T21:04:41.849Z,78.00
2018-06-17T21:07:10.967Z,77.80
2018-06-17T21:09:40.662Z,77.50
2018-06-17T21:12:08.930Z,77.40
2018-06-17T21:14:37.269Z,77.30
2018-06-17T21:17:05.502Z,77.20
2018-06-17T21:19:39.301Z,77.10
2018-06-17T21:22:12.977Z,77.00
2018-06-17T21:24:46.939Z,76.90
2018-06-17T21:27:20.450Z,76.80
2018-06-17T21:29:48.853Z,76.70
2018-06-17T21:32:17.094Z,76.60
2018-06-17T21:34:45.407Z,76.60
2018-06-17T21:37:13.865Z,76.50
2018-06-17T21:39:42.238Z,76.50
2018-06-17T21:42:10.490Z,76.30
2018-06-17T21:44:39.990Z,76.20
2018-06-17T21:47:08.221Z,76.20
2018-06-17T21:49:36.474Z,76.20
2018-06-17T21:52:04.961Z,76.10
2018-06-17T21:54:33.365Z,75.90
2018-06-17T21:57:01.633Z,75.90
2018-06-17T21:59:29.914Z,75.80
2018-06-17T22:01:58.151Z,75.80
2018-06-17T22:04:32.794Z,75.70
2018-06-17T22:07:01.061Z,75.60
2018-06-17T22:09:35.795Z,75.60
2018-06-17T22:12:09.858Z,76.20
2018-06-17T22:14:43.833Z,75.50
2018-06-17T22:17:17.655Z,75.50
2018-06-17T22:19:45.994Z,75.50
2018-06-17T22:22:14.311Z,75.50
2018-06-17T22:27:11.036Z,75.40
2018-06-17T22:29:39.265Z,75.30
2018-06-17T22:32:07.786Z,75.30
2018-06-17T22:34:36.582Z,75.30
2018-06-17T22:37:05.110Z,75.30
2018-06-17T22:39:33.352Z,75.30
2018-06-17T22:42:01.650Z,75.30
2018-06-17T22:44:29.877Z,75.20
2018-06-17T22:46:58.114Z,75.20
2018-06-17T22:49:26.398Z,75.20
2018-06-17T22:51:54.635Z,75.20
2018-06-17T22:54:34.363Z,75.10
2018-06-17T22:57:07.944Z,75.10
2018-06-17T22:59:41.630Z,75.10
2018-06-17T23:02:15.301Z,75.10
2018-06-17T23:04:50.310Z,75.00
2018-06-17T23:07:23.984Z,75.00
2018-06-17T23:09:54.154Z,75.00
2018-06-17T23:12:22.606Z,75.00
2018-06-17T23:14:50.911Z,75.00
2018-06-17T23:17:19.482Z,74.90
2018-06-17T23:19:47.742Z,74.90
2018-06-17T23:22:15.983Z,74.80
2018-06-17T23:24:44.286Z,74.80
2018-06-17T23:27:12.515Z,74.80
2018-06-17T23:29:40.847Z,74.70
2018-06-17T23:32:09.747Z,74.70
2018-06-17T23:34:38.049Z,74.70
2018-06-17T23:37:06.496Z,74.60
2018-06-17T23:39:35.094Z,74.60
2018-06-17T23:42:03.311Z,74.60
2018-06-17T23:44:31.609Z,74.50
2018-06-17T23:47:05.363Z,74.50
2018-06-17T23:49:39.087Z,74.50
2018-06-17T23:52:13.306Z,74.40
2018-06-17T23:54:46.875Z,74.40
2018-06-17T23:57:15.266Z,74.40
2018-06-17T23:59:43.565Z,74.30
